createdAt,value
2018-12-06T00:00:13.808Z,101689.95
2018-12-06T00:02:42.016Z,101687.28
2018-12-06T00:05:10.286Z,101689.95
2018-12-06T00:07:38.537Z,101686.37
2018-12-06T00:10:06.777Z,101682.88
2018-12-06T00:12:35.012Z,101683.28
2018-12-06T00:15:42.034Z,101678.91
2018-12-06T00:18:10.308Z,101674.44
2018-12-06T00:20:38.522Z,101672.70
2018-12-06T00:23:06.743Z,101667.84
2018-12-06T00:25:35.008Z,101670.53
2018-12-06T00:28:03.252Z,101667.41
2018-12-06T00:30:50.905Z,101663.91
2018-12-06T00:33:19.157Z,101657.73
2018-12-06T00:35:47.410Z,101658.14
2018-12-06T00:38:15.643Z,101657.30
2018-12-06T00:40:43.884Z,101659.91
2018-12-06T00:43:12.129Z,101653.73
2018-12-06T00:45:40.373Z,101655.95
2018-12-06T00:48:08.638Z,101655.50
2018-12-06T00:50:36.895Z,101657.27
2018-12-06T00:53:05.124Z,101651.54
2018-12-06T00:55:33.376Z,101648.89
2018-12-06T00:58:01.725Z,101648.89
2018-12-06T01:00:29.962Z,101645.36
2018-12-06T01:02:58.179Z,101648.45
2018-12-06T01:05:26.442Z,101646.69
2018-12-06T01:07:54.670Z,101648.89
2018-12-06T01:10:22.911Z,101648.42
2018-12-06T01:12:51.123Z,101642.30
2018-12-06T01:15:19.357Z,101636.13
2018-12-06T01:17:47.583Z,101634.37
2018-12-06T01:20:15.843Z,101640.53
2018-12-06T01:22:44.070Z,101639.24
2018-12-06T01:25:12.316Z,101630.42
2018-12-06T01:27:40.530Z,101633.95
2018-12-06T01:30:08.796Z,101624.28
2018-12-06T01:32:37.047Z,101624.27
2018-12-06T01:35:05.627Z,101607.52
2018-12-06T01:37:33.871Z,101610.60
2018-12-06T01:40:02.097Z,101604.45
2018-12-06T01:42:30.362Z,101596.47
2018-12-06T01:44:58.577Z,101595.14
2018-12-06T01:47:26.827Z,101593.41
2018-12-06T01:49:55.069Z,101588.53
2018-12-06T01:52:23.331Z,101592.08
2018-12-06T01:54:51.555Z,101586.80
2018-12-06T01:57:19.808Z,101588.11
2018-12-06T01:59:48.048Z,101577.09
2018-12-06T02:02:16.296Z,101579.75
2018-12-06T02:04:44.513Z,101583.74
2018-12-06T02:07:12.752Z,101590.80
2018-12-06T02:09:41.044Z,101588.56
2018-12-06T02:12:09.339Z,101586.39
2018-12-06T02:14:37.617Z,101585.97
2018-12-06T02:17:05.861Z,101583.32
2018-12-06T02:19:34.081Z,101578.03
2018-12-06T02:22:02.317Z,101579.81
2018-12-06T02:24:30.553Z,101577.16
2018-12-06T02:26:58.801Z,101573.20
2018-12-06T02:29:46.111Z,101573.20
2018-12-06T02:32:14.345Z,101569.25
2018-12-06T02:34:42.601Z,101562.19
2018-12-06T02:37:10.871Z,101562.59
2018-12-06T02:39:39.068Z,101544.10
2018-12-06T02:42:07.303Z,101545.85
2018-12-06T02:44:35.550Z,101542.33
2018-12-06T02:47:03.775Z,101532.19
2018-12-06T02:49:32.027Z,101532.21
2018-12-06T02:52:00.248Z,101517.18
2018-12-06T02:54:28.504Z,101514.13
2018-12-06T02:56:56.755Z,101509.27
2018-12-06T02:59:24.975Z,101498.25
2018-12-06T03:01:53.307Z,101484.55
2018-12-06T03:04:21.548Z,101479.27
2018-12-06T03:06:49.762Z,101473.53
2018-12-06T03:09:18.014Z,101471.31
2018-12-06T03:11:46.254Z,101462.95
2018-12-06T03:14:14.524Z,101450.61
2018-12-06T03:16:42.764Z,101451.94
2018-12-06T03:19:11.016Z,101443.11
2018-12-06T03:21:39.235Z,101441.33
2018-12-06T03:24:07.493Z,101448.38
2018-12-06T03:26:35.712Z,101428.11
2018-12-06T03:29:03.970Z,101426.78
2018-12-06T03:31:32.199Z,101424.58
2018-12-06T03:34:00.497Z,101416.64
2018-12-06T03:36:28.856Z,101414.41
2018-12-06T03:38:57.083Z,101408.69
2018-12-06T03:41:25.303Z,101409.56
2018-12-06T03:43:53.597Z,101409.13
2018-12-06T03:46:21.812Z,101398.98
2018-12-06T03:48:50.047Z,101395.02
2018-12-06T03:51:18.290Z,101388.82
2018-12-06T03:53:46.526Z,101376.49
2018-12-06T03:56:14.787Z,101372.52
2018-12-06T03:58:43.014Z,101361.05
2018-12-06T04:01:11.254Z,101357.50
2018-12-06T04:03:39.468Z,101350.88
2018-12-06T04:06:07.709Z,101343.39
2018-12-06T04:08:35.923Z,101340.73
2018-12-06T04:11:04.172Z,101342.05
2018-12-06T04:13:32.384Z,101337.22
2018-12-06T04:16:00.624Z,101330.16
2018-12-06T04:18:28.842Z,101328.80
2018-12-06T04:20:57.087Z,101328.36
2018-12-06T04:23:25.365Z,101325.27
2018-12-06T04:25:53.665Z,101320.86
2018-12-06T04:28:21.873Z,101323.05
2018-12-06T04:30:50.137Z,101309.81
2018-12-06T04:33:18.367Z,101310.24
2018-12-06T04:35:46.638Z,101304.52
2018-12-06T04:38:14.855Z,101315.99
2018-12-06T04:40:43.105Z,101309.80
2018-12-06T04:43:11.346Z,101296.11
2018-12-06T04:45:39.578Z,101297.86
2018-12-06T04:48:07.829Z,101291.67
2018-12-06T04:50:36.082Z,101287.70
2018-12-06T04:53:04.313Z,101284.16
2018-12-06T04:55:32.559Z,101281.97
2018-12-06T04:58:00.787Z,101286.80
2018-12-06T05:00:29.012Z,101288.14
2018-12-06T05:02:57.257Z,101291.65
2018-12-06T05:05:25.464Z,101294.31
2018-12-06T05:07:53.711Z,101292.97
2018-12-06T05:10:29.319Z,101283.25
2018-12-06T05:12:57.551Z,101281.50
2018-12-06T05:15:25.766Z,101275.30
2018-12-06T05:17:54.002Z,101283.70
2018-12-06T05:20:22.223Z,101285.44
2018-12-06T05:22:50.451Z,101285.88
2018-12-06T05:25:18.686Z,101286.33
2018-12-06T05:27:46.944Z,101286.75
2018-12-06T05:30:15.167Z,101285.41
2018-12-06T05:32:43.419Z,101281.88
2018-12-06T05:35:11.665Z,101284.96
2018-12-06T05:37:39.889Z,101294.23
2018-12-06T05:40:08.184Z,101285.38
2018-12-06T05:42:36.425Z,101287.17
2018-12-06T05:45:04.978Z,101289.78
2018-12-06T05:47:33.258Z,101288.92
2018-12-06T05:50:01.477Z,101296.42
2018-12-06T05:52:29.703Z,101286.23
2018-12-06T05:54:57.920Z,101288.89
2018-12-06T05:57:26.143Z,101285.33
2018-12-06T05:59:54.385Z,101289.77
2018-12-06T06:02:22.610Z,101282.25
2018-12-06T06:04:50.849Z,101280.03
2018-12-06T06:07:19.100Z,101282.23
2018-12-06T06:09:47.343Z,101286.64
2018-12-06T06:12:15.577Z,101289.72
2018-12-06T06:14:43.836Z,101287.49
2018-12-06T06:17:12.063Z,101282.62
2018-12-06T06:19:40.300Z,101284.83
2018-12-06T06:22:08.529Z,101289.23
2018-12-06T06:24:37.359Z,101292.32
2018-12-06T06:27:05.617Z,101286.58
2018-12-06T06:29:33.865Z,101283.91
2018-12-06T06:32:02.089Z,101282.59
2018-12-06T06:34:30.348Z,101273.73
2018-12-06T06:36:58.579Z,101260.91
2018-12-06T06:39:26.824Z,101263.56
2018-12-06T06:41:55.052Z,101265.75
2018-12-06T06:44:23.299Z,101280.79
2018-12-06T06:46:51.537Z,101278.11
2018-12-06T06:49:19.770Z,101270.62
2018-12-06T06:51:48.003Z,101266.17
2018-12-06T06:54:16.241Z,101263.53
2018-12-06T06:56:44.579Z,101263.06
2018-12-06T06:59:12.734Z,101263.50
2018-12-06T07:01:41.013Z,101264.36
2018-12-06T07:04:09.233Z,101265.27
2018-12-06T07:06:37.481Z,101267.87
2018-12-06T07:09:07.399Z,101265.22
2018-12-06T07:11:36.031Z,101259.05
2018-12-06T07:14:04.484Z,101259.05
2018-12-06T07:16:32.718Z,101245.79
2018-12-06T07:19:00.966Z,101246.66
2018-12-06T07:21:29.213Z,101247.99
2018-12-06T07:23:57.433Z,101251.05
2018-12-06T07:26:25.694Z,101254.58
2018-12-06T07:28:53.911Z,101239.57
2018-12-06T07:31:22.144Z,101236.03
2018-12-06T07:33:50.393Z,101224.09
2018-12-06T07:36:18.669Z,101220.09
2018-12-06T07:38:46.923Z,101216.13
2018-12-06T07:41:15.187Z,101220.95
2018-12-06T07:43:43.401Z,101215.20
2018-12-06T07:46:12.078Z,101214.75
2018-12-06T07:48:40.294Z,101207.64
2018-12-06T07:51:08.564Z,101205.02
2018-12-06T07:53:36.792Z,101193.06
2018-12-06T07:56:05.048Z,101192.61
2018-12-06T07:58:33.259Z,101178.02
2018-12-06T08:01:01.503Z,101166.05
2018-12-06T08:03:29.722Z,101149.20
2018-12-06T08:05:57.974Z,101143.92
2018-12-06T08:08:26.196Z,101141.70
2018-12-06T08:10:54.450Z,101148.77
2018-12-06T08:13:22.752Z,101156.70
2018-12-06T08:15:50.972Z,101175.69
2018-12-06T08:18:19.226Z,101184.49
2018-12-06T08:20:47.456Z,101188.90
2018-12-06T08:23:15.700Z,101183.12
2018-12-06T08:25:43.931Z,101169.39
2018-12-06T08:28:12.201Z,101160.11
2018-12-06T08:30:42.060Z,101159.63
2018-12-06T08:33:08.677Z,101181.28
2018-12-06T08:35:36.899Z,101196.30
2018-12-06T08:38:05.128Z,101197.20
2018-12-06T08:40:33.363Z,101198.03
2018-12-06T08:43:01.627Z,101190.94
2018-12-06T08:45:29.830Z,101199.33
2018-12-06T08:47:58.079Z,101202.42
2018-12-06T08:50:26.284Z,101218.34
2018-12-06T08:53:14.067Z,101229.35
2018-12-06T08:55:42.318Z,101234.61
2018-12-06T08:58:10.652Z,101233.73
2018-12-06T09:00:38.778Z,101239.45
2018-12-06T09:03:07.045Z,101250.52
2018-12-06T09:05:35.263Z,101247.39
2018-12-06T09:08:03.523Z,101251.80
2018-12-06T09:10:31.752Z,101250.87
2018-12-06T09:12:59.976Z,101259.22
2018-12-06T09:15:28.202Z,101260.08
2018-12-06T09:17:56.431Z,101256.97
2018-12-06T09:20:24.672Z,101251.63
2018-12-06T09:22:52.927Z,101251.15
2018-12-06T09:25:21.578Z,101258.64
2018-12-06T09:27:49.375Z,101257.71
2018-12-06T09:30:17.626Z,101266.16
2018-12-06T09:32:45.830Z,101264.36
2018-12-06T09:35:14.080Z,101260.80
2018-12-06T09:37:42.281Z,101268.34
2018-12-06T09:40:10.520Z,101268.31
2018-12-06T09:42:38.754Z,101259.44
2018-12-06T09:45:08.140Z,101256.33
2018-12-06T09:47:36.450Z,101255.83
2018-12-06T09:50:05.688Z,101257.17
2018-12-06T09:52:33.890Z,101257.64
2018-12-06T09:55:02.171Z,101249.61
2018-12-06T09:57:30.538Z,101247.37
2018-12-06T09:59:58.777Z,101250.45
2018-12-06T10:02:27.002Z,101244.23
2018-12-06T10:04:55.274Z,101244.63
2018-12-06T10:07:23.573Z,101239.25
2018-12-06T10:09:52.142Z,101244.54
2018-12-06T10:12:20.382Z,101244.95
2018-12-06T10:14:48.622Z,101237.92
2018-12-06T10:17:16.869Z,101243.63
2018-12-06T10:19:45.142Z,101233.84
2018-12-06T10:22:13.382Z,101223.17
2018-12-06T10:24:41.646Z,101224.02
2018-12-06T10:27:09.892Z,101226.22
2018-12-06T10:29:38.198Z,101228.01
2018-12-06T10:32:06.420Z,101219.97
2018-12-06T10:34:34.632Z,101216.81
2018-12-06T10:37:02.876Z,101218.98
2018-12-06T10:39:31.154Z,101217.30
2018-12-06T10:41:59.448Z,101212.83
2018-12-06T10:44:31.363Z,101201.64
2018-12-06T10:46:59.616Z,101200.83
2018-12-06T10:49:27.864Z,101195.90
2018-12-06T10:51:56.121Z,101196.77
2018-12-06T10:54:24.389Z,101194.01
2018-12-06T10:56:52.675Z,101180.29
2018-12-06T10:59:20.919Z,101178.92
2018-12-06T11:02:08.270Z,101170.41
2018-12-06T11:04:36.786Z,101167.64
2018-12-06T11:07:06.668Z,101166.34
2018-12-06T11:09:34.994Z,101156.96
2018-12-06T11:12:03.220Z,101151.64
2018-12-06T11:14:31.552Z,101149.77
2018-12-06T11:16:59.708Z,101145.28
2018-12-06T11:19:27.954Z,101140.33
2018-12-06T11:21:56.230Z,101143.83
2018-12-06T11:24:24.481Z,101140.66
2018-12-06T11:26:52.803Z,101126.86
2018-12-06T11:29:20.957Z,101120.63
2018-12-06T11:31:49.234Z,101125.90
2018-12-06T11:34:17.550Z,101120.08
2018-12-06T11:36:45.712Z,101125.31
2018-12-06T11:39:13.928Z,101133.25
2018-12-06T11:41:43.236Z,101142.56
2018-12-06T11:44:10.415Z,101146.56
2018-12-06T11:46:38.737Z,101145.19
2018-12-06T11:49:06.936Z,101134.58
2018-12-06T11:51:35.158Z,101131.42
2018-12-06T11:54:03.427Z,101132.80
2018-12-06T11:56:31.744Z,101119.86
2018-12-06T11:58:59.934Z,101117.56
2018-12-06T12:01:28.173Z,101125.45
2018-12-06T12:03:56.629Z,101120.97
2018-12-06T12:06:24.903Z,101115.17
2018-12-06T12:09:12.576Z,101114.67
2018-12-06T12:11:40.877Z,101117.66
2018-12-06T12:14:09.151Z,101115.48
2018-12-06T12:16:37.361Z,101118.52
2018-12-06T12:19:05.690Z,101121.64
2018-12-06T12:21:33.881Z,101120.27
2018-12-06T12:24:02.161Z,101124.63
2018-12-06T12:26:30.437Z,101123.70
2018-12-06T12:28:58.687Z,101125.03
2018-12-06T12:31:26.941Z,101124.52
2018-12-06T12:33:55.196Z,101130.81
2018-12-06T12:36:23.439Z,101113.87
2018-12-06T12:38:51.700Z,101114.28
2018-12-06T12:41:19.923Z,101110.66
2018-12-06T12:43:48.170Z,101119.11
2018-12-06T12:46:17.145Z,101123.09
2018-12-06T12:48:44.824Z,101126.23
2018-12-06T12:51:13.096Z,101125.30
2018-12-06T12:53:41.372Z,101135.95
2018-12-06T12:56:09.586Z,101139.54
2018-12-06T12:58:37.882Z,101139.50
2018-12-06T13:01:06.117Z,101136.38
2018-12-06T13:03:34.344Z,101135.45
2018-12-06T13:06:02.588Z,101124.02
2018-12-06T13:08:30.820Z,101108.91
2018-12-06T13:10:59.315Z,101102.60
2018-12-06T13:13:27.535Z,101106.66
2018-12-06T13:15:55.812Z,101109.22
2018-12-06T13:18:24.040Z,101096.00
2018-12-06T13:20:52.383Z,101094.11
2018-12-06T13:23:20.546Z,101081.81
2018-12-06T13:25:48.813Z,101068.38
2018-12-06T13:28:17.078Z,101068.33
2018-12-06T13:30:45.355Z,101068.75
2018-12-06T13:33:13.598Z,101066.55
2018-12-06T13:35:41.865Z,101073.20
2018-12-06T13:38:10.083Z,101076.23
2018-12-06T13:40:38.332Z,101076.27
2018-12-06T13:43:06.548Z,101070.89
2018-12-06T13:45:34.781Z,101074.01
2018-12-06T13:48:03.010Z,101074.98
2018-12-06T13:50:31.306Z,101065.16
2018-12-06T13:52:59.626Z,101061.52
2018-12-06T13:55:27.819Z,101054.45
2018-12-06T13:57:56.101Z,101059.71
2018-12-06T14:00:24.452Z,101061.00
2018-12-06T14:02:52.532Z,101040.95
2018-12-06T14:05:20.759Z,101028.62
2018-12-06T14:07:49.011Z,101017.48
2018-12-06T14:10:17.270Z,101011.65
2018-12-06T14:12:45.534Z,101017.42
2018-12-06T14:15:13.750Z,101019.11
2018-12-06T14:17:42.000Z,101020.00
2018-12-06T14:20:10.659Z,101022.60
2018-12-06T14:22:38.899Z,101019.52
2018-12-06T14:25:07.122Z,101015.53
2018-12-06T14:27:35.418Z,101025.31
2018-12-06T14:30:03.662Z,101035.05
2018-12-06T14:32:31.913Z,101034.58
2018-12-06T14:35:00.204Z,101036.33
2018-12-06T14:37:28.475Z,101036.69
2018-12-06T14:39:56.712Z,101036.74
2018-12-06T14:42:24.985Z,101045.14
2018-12-06T14:44:53.215Z,101041.14
2018-12-06T14:47:21.461Z,101042.93
2018-12-06T14:49:49.688Z,101048.16
2018-12-06T14:52:17.960Z,101048.06
2018-12-06T14:54:46.159Z,101049.39
2018-12-06T14:57:14.413Z,101046.30
2018-12-06T14:59:42.630Z,101051.13
2018-12-06T15:02:10.882Z,101061.33
2018-12-06T15:04:39.113Z,101064.92
2018-12-06T15:07:07.384Z,101060.00
2018-12-06T15:09:35.596Z,101055.06
2018-12-06T15:12:03.837Z,101052.40
2018-12-06T15:14:32.096Z,101051.48
2018-12-06T15:17:00.336Z,101059.52
2018-12-06T15:19:28.555Z,101060.34
2018-12-06T15:21:56.771Z,101066.14
2018-12-06T15:24:25.001Z,101069.31
2018-12-06T15:26:53.222Z,101063.52
2018-12-06T15:29:21.472Z,101071.99
2018-12-06T15:31:49.695Z,101078.60
2018-12-06T15:34:17.977Z,101093.62
2018-12-06T15:36:46.224Z,101107.88
2018-12-06T15:39:14.453Z,101114.48
2018-12-06T15:41:42.680Z,101108.55
2018-12-06T15:44:10.924Z,101103.16
2018-12-06T15:46:39.158Z,101101.83
2018-12-06T15:49:11.653Z,101096.86
2018-12-06T15:51:38.586Z,101086.66
2018-12-06T15:54:06.830Z,101088.95
2018-12-06T15:56:35.075Z,101086.36
2018-12-06T15:59:03.329Z,101080.50
2018-12-06T16:01:31.559Z,101079.53
2018-12-06T16:03:59.885Z,101094.72
2018-12-06T16:06:28.032Z,101091.28
2018-12-06T16:08:56.279Z,101093.12
2018-12-06T16:11:24.507Z,101099.78
2018-12-06T16:13:52.788Z,101090.36
2018-12-06T16:16:21.011Z,101085.95
2018-12-06T16:18:49.223Z,101080.67
2018-12-06T16:21:17.463Z,101071.85
2018-12-06T16:23:45.682Z,101066.02
2018-12-06T16:26:13.951Z,101047.75
2018-12-06T16:28:42.186Z,101044.48
2018-12-06T16:31:10.463Z,101046.98
2018-12-06T16:33:38.721Z,101050.93
2018-12-06T16:36:06.966Z,101068.20
2018-12-06T16:38:35.195Z,101047.30
2018-12-06T16:41:03.438Z,101047.28
2018-12-06T16:43:31.673Z,101040.63
2018-12-06T16:45:59.925Z,101028.22
2018-12-06T16:48:28.169Z,101032.16
2018-12-06T16:50:56.428Z,101038.73
2018-12-06T16:53:24.652Z,101044.51
2018-12-06T16:55:52.981Z,101030.26
2018-12-06T16:58:21.201Z,101035.94
2018-12-06T17:00:49.450Z,101030.32
2018-12-06T17:03:17.677Z,101030.61
2018-12-06T17:05:45.926Z,101018.67
2018-12-06T17:08:14.158Z,101023.07
2018-12-06T17:10:42.406Z,101021.23
2018-12-06T17:13:10.656Z,101036.29
2018-12-06T17:15:38.906Z,101042.91
2018-12-06T17:18:07.174Z,101028.34
2018-12-06T17:20:35.384Z,101036.17
2018-12-06T17:23:03.613Z,101040.23
2018-12-06T17:25:31.860Z,101038.39
2018-12-06T17:28:00.072Z,101029.91
2018-12-06T17:30:28.322Z,101020.11
2018-12-06T17:32:56.558Z,101013.98
2018-12-06T17:35:24.816Z,101023.25
2018-12-06T17:37:53.058Z,101030.83
2018-12-06T17:40:21.287Z,101036.52
2018-12-06T17:42:49.515Z,101039.59
2018-12-06T17:45:17.741Z,101036.41
2018-12-06T17:47:45.982Z,101041.27
2018-12-06T17:50:14.196Z,101052.75
2018-12-06T17:52:42.497Z,101054.54
2018-12-06T17:55:10.774Z,101046.95
2018-12-06T17:57:39.027Z,101054.49
2018-12-06T18:00:08.934Z,101045.55
2018-12-06T18:02:37.166Z,101050.43
2018-12-06T18:05:05.657Z,101051.25
2018-12-06T18:07:33.904Z,101045.05
2018-12-06T18:10:02.144Z,101038.70
2018-12-06T18:12:30.397Z,101024.44
2018-12-06T18:14:58.957Z,101035.52
2018-12-06T18:17:26.982Z,101031.98
2018-12-06T18:19:55.207Z,101042.14
2018-12-06T18:22:23.462Z,101025.14
2018-12-06T18:24:51.681Z,101030.83
2018-12-06T18:27:19.961Z,101017.59
2018-12-06T18:29:48.206Z,101023.80
2018-12-06T18:32:16.463Z,101026.82
2018-12-06T18:34:46.108Z,101028.96
2018-12-06T18:37:14.368Z,101021.88
2018-12-06T18:39:42.604Z,101013.00
2018-12-06T18:42:10.852Z,101012.48
2018-12-06T18:44:39.093Z,101016.83
2018-12-06T18:47:07.326Z,101021.75
2018-12-06T18:49:35.939Z,101018.15
2018-12-06T18:52:04.187Z,101017.17
2018-12-06T18:54:32.436Z,101022.48
2018-12-06T18:57:00.681Z,101021.03
2018-12-06T18:59:28.937Z,101012.56
2018-12-06T19:01:57.162Z,101016.50
2018-12-06T19:04:25.427Z,101014.62
2018-12-06T19:06:53.642Z,101005.69
2018-12-06T19:09:21.891Z,100999.87
2018-12-06T19:11:50.124Z,100997.61
2018-12-06T19:14:21.912Z,100995.34
2018-12-06T19:16:46.651Z,100999.28
2018-12-06T19:19:14.898Z,100993.53
2018-12-06T19:21:43.123Z,100983.67
2018-12-06T19:24:11.405Z,100984.94
2018-12-06T19:26:39.643Z,100979.08
2018-12-06T19:29:07.900Z,100975.06
2018-12-06T19:31:36.136Z,100977.72
2018-12-06T19:34:04.436Z,100984.75
2018-12-06T19:36:32.663Z,100992.30
2018-12-06T19:39:00.905Z,100984.75
2018-12-06T19:41:29.139Z,100986.06
2018-12-06T19:43:57.390Z,100984.67
2018-12-06T19:46:25.605Z,100981.07
2018-12-06T19:48:53.863Z,100977.06
2018-12-06T19:51:22.135Z,100978.79
2018-12-06T19:53:50.351Z,100983.59
2018-12-06T19:56:18.593Z,100984.92
2018-12-06T19:58:46.838Z,100984.41
2018-12-06T20:01:15.088Z,100980.78
2018-12-06T20:03:43.318Z,100969.64
2018-12-06T20:06:11.566Z,100958.48
2018-12-06T20:08:39.821Z,100954.00
2018-12-06T20:11:08.088Z,100949.91
2018-12-06T20:13:36.327Z,100952.52
2018-12-06T20:16:04.679Z,100946.77
2018-12-06T20:18:32.906Z,100946.25
2018-12-06T20:21:01.160Z,100937.31
2018-12-06T20:23:29.531Z,100939.09
2018-12-06T20:25:57.889Z,100942.22
2018-12-06T20:28:26.835Z,100934.16
2018-12-06T20:30:54.592Z,100933.20
2018-12-06T20:33:22.864Z,100938.97
2018-12-06T20:35:51.126Z,100943.86
2018-12-06T20:38:19.390Z,100939.30
2018-12-06T20:40:47.619Z,100939.33
2018-12-06T20:43:15.866Z,100943.72
2018-12-06T20:45:44.129Z,100949.44
2018-12-06T20:48:12.381Z,100952.12
2018-12-06T20:50:40.609Z,100939.57
2018-12-06T20:53:08.889Z,100933.41
2018-12-06T20:55:37.109Z,100946.72
2018-12-06T20:58:05.353Z,100940.03
2018-12-06T21:00:33.589Z,100944.37
2018-12-06T21:03:01.854Z,100939.00
2018-12-06T21:05:30.099Z,100941.61
2018-12-06T21:07:58.376Z,100931.80
2018-12-06T21:10:26.646Z,100930.86
2018-12-06T21:12:54.913Z,100930.86
2018-12-06T21:15:23.138Z,100931.33
2018-12-06T21:17:51.414Z,100928.19
2018-12-06T21:20:19.689Z,100917.50
2018-12-06T21:22:47.963Z,100917.09
2018-12-06T21:25:16.209Z,100923.72
2018-12-06T21:27:44.480Z,100914.83
2018-12-06T21:30:12.726Z,100909.48
2018-12-06T21:32:40.994Z,100911.67
2018-12-06T21:35:09.261Z,100912.59
2018-12-06T21:37:37.525Z,100915.27
2018-12-06T21:40:06.607Z,100913.00
2018-12-06T21:42:34.865Z,100908.06
2018-12-06T21:45:03.109Z,100902.31
2018-12-06T21:47:31.346Z,100904.05
2018-12-06T21:49:59.622Z,100907.57
2018-12-06T21:52:27.865Z,100907.45
2018-12-06T21:54:56.116Z,100903.44
2018-12-06T21:57:24.350Z,100896.36
2018-12-06T21:59:52.613Z,100897.14
2018-12-06T22:05:13.414Z,100884.65
2018-12-06T22:07:41.652Z,100882.20
2018-12-06T22:10:09.929Z,100877.51
2018-12-06T22:12:38.168Z,100873.00
2018-12-06T22:15:06.424Z,100874.25
2018-12-06T22:17:34.637Z,100875.13
2018-12-06T22:20:02.915Z,100882.18
2018-12-06T22:22:31.191Z,100878.98
2018-12-06T22:24:59.562Z,100882.52
2018-12-06T22:27:27.712Z,100880.69
2018-12-06T22:29:55.974Z,100873.45
2018-12-06T22:32:24.259Z,100874.72
2018-12-06T22:34:52.501Z,100866.63
2018-12-06T22:37:20.730Z,100861.34
2018-12-06T22:39:48.993Z,100864.73
2018-12-06T22:42:17.236Z,100862.22
2018-12-06T22:44:45.498Z,100855.53
2018-12-06T22:47:13.825Z,100847.91
2018-12-06T22:49:42.093Z,100849.72
2018-12-06T22:52:10.306Z,100840.42
2018-12-06T22:54:38.557Z,100842.09
2018-12-06T22:57:06.816Z,100843.44
2018-12-06T22:59:35.065Z,100843.03
2018-12-06T23:02:03.305Z,100840.73
2018-12-06T23:04:31.580Z,100840.73
2018-12-06T23:06:59.862Z,100837.59
2018-12-06T23:09:28.127Z,100833.58
2018-12-06T23:11:56.338Z,100831.31
2018-12-06T23:14:24.611Z,100832.55
2018-12-06T23:16:52.843Z,100822.25
2018-12-06T23:19:21.081Z,100807.91
2018-12-06T23:21:49.292Z,100797.69
2018-12-06T23:24:17.568Z,100799.83
2018-12-06T23:26:45.794Z,100794.08
2018-12-06T23:29:14.022Z,100797.55
2018-12-06T23:31:42.256Z,100800.20
2018-12-06T23:34:10.491Z,100806.02
2018-12-06T23:36:38.740Z,100808.22
2018-12-06T23:39:08.183Z,100807.34
2018-12-06T23:41:36.424Z,100810.36
2018-12-06T23:44:04.667Z,100810.66
2018-12-06T23:46:33.009Z,100810.66
2018-12-06T23:49:01.257Z,100802.20
2018-12-06T23:51:48.916Z,100784.98
2018-12-06T23:54:17.225Z,100791.56
2018-12-06T23:56:45.470Z,100790.63
2018-12-06T23:59:13.744Z,100792.91
